sensor_id;sensor_type;location;lat;lon;timestamp;P1;durP1;ratioP1;P2;durP2;ratioP2
59512;SDS011;45330;51.634;5.562;2023-04-25T00:01:20;16.23;;;3.97;;
59512;SDS011;45330;51.634;5.562;2023-04-25T00:03:46;17.15;;;4.50;;
59512;SDS011;45330;51.634;5.562;2023-04-25T00:06:12;17.92;;;4.20;;
59512;SDS011;45330;51.634;5.562;2023-04-25T00:08:37;17.90;;;4.60;;
59512;SDS011;45330;51.634;5.562;2023-04-25T00:11:03;15.02;;;4.30;;
59512;SDS011;45330;51.634;5.562;2023-04-25T00:13:29;20.20;;;4.35;;
59512;SDS011;45330;51.634;5.562;2023-04-25T00:15:55;18.83;;;4.45;;
59512;SDS011;45330;51.634;5.562;2023-04-25T00:18:21;17.77;;;4.53;;
59512;SDS011;45330;51.634;5.562;2023-04-25T00:20:47;17.55;;;4.13;;
59512;SDS011;45330;51.634;5.562;2023-04-25T00:23:16;18.00;;;4.45;;
59512;SDS011;45330;51.634;5.562;2023-04-25T00:25:45;13.55;;;4.18;;
59512;SDS011;45330;51.634;5.562;2023-04-25T00:28:11;19.45;;;4.35;;
59512;SDS011;45330;51.634;5.562;2023-04-25T00:30:37;20.52;;;5.07;;
59512;SDS011;45330;51.634;5.562;2023-04-25T00:33:03;17.90;;;5.20;;
59512;SDS011;45330;51.634;5.562;2023-04-25T00:35:29;17.55;;;5.20;;
59512;SDS011;45330;51.634;5.562;2023-04-25T00:37:54;19.65;;;4.72;;
59512;SDS011;45330;51.634;5.562;2023-04-25T00:40:20;20.17;;;5.15;;
59512;SDS011;45330;51.634;5.562;2023-04-25T00:42:45;18.70;;;5.10;;
59512;SDS011;45330;51.634;5.562;2023-04-25T00:45:12;21.30;;;4.85;;
59512;SDS011;45330;51.634;5.562;2023-04-25T00:47:39;16.52;;;4.47;;
59512;SDS011;45330;51.634;5.562;2023-04-25T00:50:05;20.05;;;4.43;;
59512;SDS011;45330;51.634;5.562;2023-04-25T00:52:31;22.63;;;5.03;;
59512;SDS011;45330;51.634;5.562;2023-04-25T00:54:57;22.75;;;4.88;;
59512;SDS011;45330;51.634;5.562;2023-04-25T00:57:23;21.45;;;5.05;;
59512;SDS011;45330;51.634;5.562;2023-04-25T00:59:48;19.73;;;4.70;;
59512;SDS011;45330;51.634;5.562;2023-04-25T01:02:17;22.88;;;4.97;;
59512;SDS011;45330;51.634;5.562;2023-04-25T01:04:42;23.92;;;5.07;;
59512;SDS011;45330;51.634;5.562;2023-04-25T01:07:08;20.38;;;4.57;;
59512;SDS011;45330;51.634;5.562;2023-04-25T01:09:34;20.45;;;5.32;;
59512;SDS011;45330;51.634;5.562;2023-04-25T01:12:00;18.70;;;4.93;;
59512;SDS011;45330;51.634;5.562;2023-04-25T01:14:26;17.20;;;4.78;;
59512;SDS011;45330;51.634;5.562;2023-04-25T01:16:52;19.83;;;4.90;;
59512;SDS011;45330;51.634;5.562;2023-04-25T01:19:18;21.45;;;4.80;;
59512;SDS011;45330;51.634;5.562;2023-04-25T01:21:45;18.98;;;5.20;;
59512;SDS011;45330;51.634;5.562;2023-04-25T01:24:10;24.58;;;4.95;;
59512;SDS011;45330;51.634;5.562;2023-04-25T01:26:37;23.20;;;5.05;;
59512;SDS011;45330;51.634;5.562;2023-04-25T01:29:06;22.27;;;4.93;;
59512;SDS011;45330;51.634;5.562;2023-04-25T01:31:33;22.92;;;5.53;;
59512;SDS011;45330;51.634;5.562;2023-04-25T01:33:59;23.65;;;5.38;;
59512;SDS011;45330;51.634;5.562;2023-04-25T01:36:25;20.95;;;6.65;;
59512;SDS011;45330;51.634;5.562;2023-04-25T01:38:52;20.20;;;4.93;;
59512;SDS011;45330;51.634;5.562;2023-04-25T01:41:17;19.70;;;4.85;;
59512;SDS011;45330;51.634;5.562;2023-04-25T01:43:43;22.13;;;5.80;;
59512;SDS011;45330;51.634;5.562;2023-04-25T01:46:09;21.38;;;5.43;;
59512;SDS011;45330;51.634;5.562;2023-04-25T01:48:36;20.15;;;5.45;;
59512;SDS011;45330;51.634;5.562;2023-04-25T01:51:01;18.05;;;5.10;;
59512;SDS011;45330;51.634;5.562;2023-04-25T01:53:27;20.35;;;5.40;;
59512;SDS011;45330;51.634;5.562;2023-04-25T01:55:52;20.50;;;5.90;;
59512;SDS011;45330;51.634;5.562;2023-04-25T01:58:18;20.45;;;5.40;;
59512;SDS011;45330;51.634;5.562;2023-04-25T02:00:43;18.85;;;5.05;;
59512;SDS011;45330;51.634;5.562;2023-04-25T02:03:09;21.75;;;5.50;;
59512;SDS011;45330;51.634;5.562;2023-04-25T02:05:38;22.35;;;5.63;;
59512;SDS011;45330;51.634;5.562;2023-04-25T02:08:05;24.55;;;5.70;;
59512;SDS011;45330;51.634;5.562;2023-04-25T02:10:32;21.70;;;5.80;;
59512;SDS011;45330;51.634;5.562;2023-04-25T02:12:57;20.95;;;5.22;;
59512;SDS011;45330;51.634;5.562;2023-04-25T02:15:23;22.40;;;5.68;;
59512;SDS011;45330;51.634;5.562;2023-04-25T02:17:49;19.88;;;5.05;;
59512;SDS011;45330;51.634;5.562;2023-04-25T02:20:14;19.45;;;5.22;;
59512;SDS011;45330;51.634;5.562;2023-04-25T02:22:41;22.30;;;6.43;;
59512;SDS011;45330;51.634;5.562;2023-04-25T02:25:07;24.30;;;6.20;;
59512;SDS011;45330;51.634;5.562;2023-04-25T02:27:34;24.98;;;6.18;;
59512;SDS011;45330;51.634;5.562;2023-04-25T02:29:59;19.52;;;5.80;;
59512;SDS011;45330;51.634;5.562;2023-04-25T02:32:25;18.98;;;5.32;;
59512;SDS011;45330;51.634;5.562;2023-04-25T02:34:51;24.25;;;5.32;;
59512;SDS011;45330;51.634;5.562;2023-04-25T02:37:17;22.80;;;5.88;;
59512;SDS011;45330;51.634;5.562;2023-04-25T02:39:42;22.02;;;5.93;;
59512;SDS011;45330;51.634;5.562;2023-04-25T02:42:08;23.45;;;5.95;;
59512;SDS011;45330;51.634;5.562;2023-04-25T02:44:33;22.95;;;6.53;;
59512;SDS011;45330;51.634;5.562;2023-04-25T02:46:58;21.40;;;5.25;;
59512;SDS011;45330;51.634;5.562;2023-04-25T02:49:24;21.48;;;5.88;;
59512;SDS011;45330;51.634;5.562;2023-04-25T02:51:49;19.98;;;5.45;;
59512;SDS011;45330;51.634;5.562;2023-04-25T02:54:14;24.15;;;6.22;;
59512;SDS011;45330;51.634;5.562;2023-04-25T02:56:40;26.38;;;6.60;;
59512;SDS011;45330;51.634;5.562;2023-04-25T02:59:05;23.00;;;5.75;;
59512;SDS011;45330;51.634;5.562;2023-04-25T03:01:30;22.85;;;6.00;;
59512;SDS011;45330;51.634;5.562;2023-04-25T03:03:56;24.65;;;6.28;;
59512;SDS011;45330;51.634;5.562;2023-04-25T03:06:21;22.48;;;6.20;;
59512;SDS011;45330;51.634;5.562;2023-04-25T03:08:46;24.77;;;6.72;;
59512;SDS011;45330;51.634;5.562;2023-04-25T03:11:12;23.40;;;6.22;;
59512;SDS011;45330;51.634;5.562;2023-04-25T03:13:37;22.63;;;6.22;;
59512;SDS011;45330;51.634;5.562;2023-04-25T03:16:03;23.77;;;6.57;;
59512;SDS011;45330;51.634;5.562;2023-04-25T03:18:28;25.05;;;6.47;;
59512;SDS011;45330;51.634;5.562;2023-04-25T03:20:54;22.65;;;6.50;;
59512;SDS011;45330;51.634;5.562;2023-04-25T03:23:19;25.98;;;6.22;;
59512;SDS011;45330;51.634;5.562;2023-04-25T03:25:45;22.23;;;5.68;;
59512;SDS011;45330;51.634;5.562;2023-04-25T03:28:10;25.63;;;6.28;;
59512;SDS011;45330;51.634;5.562;2023-04-25T03:30:35;20.02;;;5.95;;
59512;SDS011;45330;51.634;5.562;2023-04-25T03:33:01;24.27;;;6.38;;
59512;SDS011;45330;51.634;5.562;2023-04-25T03:35:26;25.13;;;6.13;;
59512;SDS011;45330;51.634;5.562;2023-04-25T03:37:51;25.10;;;6.20;;
59512;SDS011;45330;51.634;5.562;2023-04-25T03:40:17;24.60;;;6.70;;
59512;SDS011;45330;51.634;5.562;2023-04-25T03:42:42;24.35;;;6.38;;
59512;SDS011;45330;51.634;5.562;2023-04-25T03:45:08;25.83;;;6.55;;
59512;SDS011;45330;51.634;5.562;2023-04-25T03:47:33;22.20;;;6.05;;
59512;SDS011;45330;51.634;5.562;2023-04-25T03:49:58;23.75;;;6.43;;
59512;SDS011;45330;51.634;5.562;2023-04-25T03:52:26;23.20;;;6.60;;
59512;SDS011;45330;51.634;5.562;2023-04-25T03:54:51;23.77;;;6.53;;
59512;SDS011;45330;51.634;5.562;2023-04-25T03:57:17;23.50;;;6.53;;
59512;SDS011;45330;51.634;5.562;2023-04-25T03:59:42;24.33;;;6.82;;
59512;SDS011;45330;51.634;5.562;2023-04-25T04:02:07;23.83;;;6.50;;
59512;SDS011;45330;51.634;5.562;2023-04-25T04:04:33;22.23;;;6.32;;
59512;SDS011;45330;51.634;5.562;2023-04-25T04:06:58;22.42;;;6.00;;
59512;SDS011;45330;51.634;5.562;2023-04-25T04:09:24;20.95;;;5.97;;
59512;SDS011;45330;51.634;5.562;2023-04-25T04:11:50;25.02;;;6.75;;
59512;SDS011;45330;51.634;5.562;2023-04-25T04:14:15;24.30;;;7.10;;
59512;SDS011;45330;51.634;5.562;2023-04-25T04:16:41;28.15;;;7.30;;
59512;SDS011;45330;51.634;5.562;2023-04-25T04:19:06;28.10;;;6.45;;
59512;SDS011;45330;51.634;5.562;2023-04-25T04:21:32;21.27;;;6.50;;
59512;SDS011;45330;51.634;5.562;2023-04-25T04:23:58;22.38;;;6.90;;
59512;SDS011;45330;51.634;5.562;2023-04-25T04:26:25;25.33;;;6.60;;
59512;SDS011;45330;51.634;5.562;2023-04-25T04:28:51;24.73;;;6.63;;
59512;SDS011;45330;51.634;5.562;2023-04-25T04:31:16;24.88;;;6.93;;
59512;SDS011;45330;51.634;5.562;2023-04-25T04:33:44;25.15;;;6.50;;
59512;SDS011;45330;51.634;5.562;2023-04-25T04:36:10;27.42;;;6.93;;
59512;SDS011;45330;51.634;5.562;2023-04-25T04:38:36;23.85;;;6.32;;
59512;SDS011;45330;51.634;5.562;2023-04-25T04:41:01;24.58;;;6.70;;
59512;SDS011;45330;51.634;5.562;2023-04-25T04:43:27;25.52;;;7.25;;
59512;SDS011;45330;51.634;5.562;2023-04-25T04:45:53;24.23;;;6.50;;
59512;SDS011;45330;51.634;5.562;2023-04-25T04:48:21;22.33;;;5.80;;
59512;SDS011;45330;51.634;5.562;2023-04-25T04:50:46;26.85;;;6.28;;
59512;SDS011;45330;51.634;5.562;2023-04-25T04:53:12;26.52;;;6.72;;
59512;SDS011;45330;51.634;5.562;2023-04-25T04:55:38;24.75;;;6.50;;
59512;SDS011;45330;51.634;5.562;2023-04-25T04:58:06;22.05;;;6.20;;
59512;SDS011;45330;51.634;5.562;2023-04-25T05:00:31;18.83;;;5.50;;
59512;SDS011;45330;51.634;5.562;2023-04-25T05:02:58;20.25;;;5.65;;
59512;SDS011;45330;51.634;5.562;2023-04-25T05:05:23;21.52;;;5.65;;
59512;SDS011;45330;51.634;5.562;2023-04-25T05:07:49;16.77;;;5.70;;
59512;SDS011;45330;51.634;5.562;2023-04-25T05:10:16;20.42;;;5.63;;
59512;SDS011;45330;51.634;5.562;2023-04-25T05:12:43;18.67;;;5.47;;
59512;SDS011;45330;51.634;5.562;2023-04-25T05:15:10;23.80;;;6.65;;
59512;SDS011;45330;51.634;5.562;2023-04-25T05:17:35;23.67;;;6.15;;
59512;SDS011;45330;51.634;5.562;2023-04-25T05:20:01;22.45;;;5.95;;
59512;SDS011;45330;51.634;5.562;2023-04-25T05:22:26;20.83;;;5.47;;
59512;SDS011;45330;51.634;5.562;2023-04-25T05:24:52;20.85;;;5.35;;
59512;SDS011;45330;51.634;5.562;2023-04-25T05:27:18;21.73;;;5.60;;
59512;SDS011;45330;51.634;5.562;2023-04-25T05:29:44;23.42;;;5.32;;
59512;SDS011;45330;51.634;5.562;2023-04-25T05:32:09;19.77;;;4.72;;
59512;SDS011;45330;51.634;5.562;2023-04-25T05:34:35;17.38;;;5.07;;
59512;SDS011;45330;51.634;5.562;2023-04-25T05:37:00;18.00;;;4.85;;
59512;SDS011;45330;51.634;5.562;2023-04-25T05:39:26;24.20;;;4.97;;
59512;SDS011;45330;51.634;5.562;2023-04-25T05:41:51;18.55;;;5.57;;
59512;SDS011;45330;51.634;5.562;2023-04-25T05:44:17;18.33;;;4.88;;
59512;SDS011;45330;51.634;5.562;2023-04-25T05:46:42;25.13;;;5.53;;
59512;SDS011;45330;51.634;5.562;2023-04-25T05:49:08;20.67;;;5.43;;
59512;SDS011;45330;51.634;5.562;2023-04-25T05:51:33;22.73;;;5.82;;
59512;SDS011;45330;51.634;5.562;2023-04-25T05:53:59;23.80;;;5.70;;
59512;SDS011;45330;51.634;5.562;2023-04-25T05:56:24;20.20;;;5.00;;
59512;SDS011;45330;51.634;5.562;2023-04-25T05:58:50;22.48;;;5.15;;
59512;SDS011;45330;51.634;5.562;2023-04-25T06:01:15;22.50;;;5.22;;
59512;SDS011;45330;51.634;5.562;2023-04-25T06:03:41;20.05;;;4.78;;
59512;SDS011;45330;51.634;5.562;2023-04-25T06:06:08;20.80;;;4.93;;
59512;SDS011;45330;51.634;5.562;2023-04-25T06:08:33;17.77;;;4.63;;
59512;SDS011;45330;51.634;5.562;2023-04-25T06:10:59;19.48;;;4.80;;
59512;SDS011;45330;51.634;5.562;2023-04-25T06:13:24;21.40;;;4.80;;
59512;SDS011;45330;51.634;5.562;2023-04-25T06:15:50;19.95;;;5.05;;
59512;SDS011;45330;51.634;5.562;2023-04-25T06:18:15;18.23;;;4.47;;
59512;SDS011;45330;51.634;5.562;2023-04-25T06:20:40;20.55;;;4.50;;
59512;SDS011;45330;51.634;5.562;2023-04-25T06:23:06;17.80;;;4.63;;
59512;SDS011;45330;51.634;5.562;2023-04-25T06:25:31;17.50;;;4.20;;
59512;SDS011;45330;51.634;5.562;2023-04-25T06:27:57;15.13;;;4.03;;
59512;SDS011;45330;51.634;5.562;2023-04-25T06:30:22;13.43;;;3.78;;
59512;SDS011;45330;51.634;5.562;2023-04-25T06:32:50;14.52;;;4.30;;
59512;SDS011;45330;51.634;5.562;2023-04-25T06:35:16;19.55;;;4.28;;
59512;SDS011;45330;51.634;5.562;2023-04-25T06:37:41;16.45;;;3.47;;
59512;SDS011;45330;51.634;5.562;2023-04-25T06:40:07;16.20;;;3.65;;
59512;SDS011;45330;51.634;5.562;2023-04-25T06:42:33;15.77;;;3.92;;
59512;SDS011;45330;51.634;5.562;2023-04-25T06:44:58;14.25;;;3.20;;
59512;SDS011;45330;51.634;5.562;2023-04-25T06:47:24;13.35;;;4.13;;
59512;SDS011;45330;51.634;5.562;2023-04-25T06:49:49;12.88;;;3.47;;
59512;SDS011;45330;51.634;5.562;2023-04-25T06:52:15;14.35;;;3.20;;
59512;SDS011;45330;51.634;5.562;2023-04-25T06:54:40;16.02;;;3.55;;
59512;SDS011;45330;51.634;5.562;2023-04-25T06:57:05;12.73;;;3.13;;
59512;SDS011;45330;51.634;5.562;2023-04-25T06:59:31;17.33;;;3.83;;
59512;SDS011;45330;51.634;5.562;2023-04-25T07:01:57;18.10;;;3.30;;
59512;SDS011;45330;51.634;5.562;2023-04-25T07:04:23;12.70;;;3.20;;
59512;SDS011;45330;51.634;5.562;2023-04-25T07:06:48;17.45;;;3.30;;
59512;SDS011;45330;51.634;5.562;2023-04-25T07:09:14;13.55;;;3.55;;
59512;SDS011;45330;51.634;5.562;2023-04-25T07:11:39;18.05;;;3.38;;
59512;SDS011;45330;51.634;5.562;2023-04-25T07:14:05;13.38;;;3.10;;
59512;SDS011;45330;51.634;5.562;2023-04-25T07:16:30;13.63;;;3.25;;
59512;SDS011;45330;51.634;5.562;2023-04-25T07:18:56;15.25;;;3.22;;
59512;SDS011;45330;51.634;5.562;2023-04-25T07:21:21;15.90;;;4.07;;
59512;SDS011;45330;51.634;5.562;2023-04-25T07:23:46;14.60;;;3.13;;
59512;SDS011;45330;51.634;5.562;2023-04-25T07:26:12;16.83;;;3.58;;
59512;SDS011;45330;51.634;5.562;2023-04-25T07:28:38;14.50;;;3.88;;
59512;SDS011;45330;51.634;5.562;2023-04-25T07:31:03;13.57;;;3.70;;
59512;SDS011;45330;51.634;5.562;2023-04-25T07:33:29;15.75;;;3.78;;
59512;SDS011;45330;51.634;5.562;2023-04-25T07:35:54;14.30;;;3.40;;
59512;SDS011;45330;51.634;5.562;2023-04-25T07:38:20;14.80;;;2.95;;
59512;SDS011;45330;51.634;5.562;2023-04-25T07:40:47;12.48;;;3.03;;
59512;SDS011;45330;51.634;5.562;2023-04-25T07:43:13;10.70;;;2.60;;
59512;SDS011;45330;51.634;5.562;2023-04-25T07:45:41;12.48;;;3.25;;
59512;SDS011;45330;51.634;5.562;2023-04-25T07:48:07;16.50;;;3.00;;
59512;SDS011;45330;51.634;5.562;2023-04-25T07:50:32;11.25;;;2.83;;
59512;SDS011;45330;51.634;5.562;2023-04-25T07:52:58;11.20;;;2.50;;
59512;SDS011;45330;51.634;5.562;2023-04-25T07:55:23;16.55;;;3.00;;
59512;SDS011;45330;51.634;5.562;2023-04-25T07:57:49;13.25;;;2.90;;
59512;SDS011;45330;51.634;5.562;2023-04-25T08:00:14;14.18;;;3.10;;
59512;SDS011;45330;51.634;5.562;2023-04-25T08:02:40;11.00;;;2.25;;
59512;SDS011;45330;51.634;5.562;2023-04-25T08:05:05;12.13;;;2.63;;
59512;SDS011;45330;51.634;5.562;2023-04-25T08:07:33;15.40;;;2.85;;
59512;SDS011;45330;51.634;5.562;2023-04-25T08:09:58;14.50;;;3.13;;
59512;SDS011;45330;51.634;5.562;2023-04-25T08:12:24;12.32;;;2.72;;
59512;SDS011;45330;51.634;5.562;2023-04-25T08:14:49;16.00;;;2.72;;
59512;SDS011;45330;51.634;5.562;2023-04-25T08:17:15;11.20;;;2.42;;
59512;SDS011;45330;51.634;5.562;2023-04-25T08:19:41;13.80;;;2.42;;
59512;SDS011;45330;51.634;5.562;2023-04-25T08:22:06;18.33;;;3.20;;
59512;SDS011;45330;51.634;5.562;2023-04-25T08:24:31;14.70;;;2.88;;
59512;SDS011;45330;51.634;5.562;2023-04-25T08:26:57;13.93;;;2.75;;
59512;SDS011;45330;51.634;5.562;2023-04-25T08:29:23;18.80;;;2.78;;
59512;SDS011;45330;51.634;5.562;2023-04-25T08:31:50;10.40;;;2.38;;
59512;SDS011;45330;51.634;5.562;2023-04-25T08:34:17;15.18;;;2.55;;
59512;SDS011;45330;51.634;5.562;2023-04-25T08:36:43;11.90;;;2.22;;
59512;SDS011;45330;51.634;5.562;2023-04-25T08:39:09;12.70;;;2.50;;
59512;SDS011;45330;51.634;5.562;2023-04-25T08:41:36;14.82;;;3.28;;
59512;SDS011;45330;51.634;5.562;2023-04-25T08:44:02;17.08;;;2.83;;
59512;SDS011;45330;51.634;5.562;2023-04-25T08:46:28;14.70;;;2.60;;
59512;SDS011;45330;51.634;5.562;2023-04-25T08:48:57;14.70;;;3.33;;
59512;SDS011;45330;51.634;5.562;2023-04-25T08:51:25;14.77;;;2.42;;
59512;SDS011;45330;51.634;5.562;2023-04-25T08:53:53;12.98;;;2.80;;
59512;SDS011;45330;51.634;5.562;2023-04-25T08:56:18;13.25;;;2.50;;
59512;SDS011;45330;51.634;5.562;2023-04-25T08:58:50;12.68;;;2.40;;
59512;SDS011;45330;51.634;5.562;2023-04-25T09:01:16;13.52;;;2.55;;
59512;SDS011;45330;51.634;5.562;2023-04-25T09:03:42;12.98;;;2.85;;
59512;SDS011;45330;51.634;5.562;2023-04-25T09:06:10;14.43;;;3.67;;
59512;SDS011;45330;51.634;5.562;2023-04-25T09:08:36;17.02;;;3.35;;
59512;SDS011;45330;51.634;5.562;2023-04-25T09:11:02;14.25;;;2.80;;
59512;SDS011;45330;51.634;5.562;2023-04-25T09:13:28;12.63;;;3.03;;
59512;SDS011;45330;51.634;5.562;2023-04-25T09:15:54;9.30;;;2.50;;
59512;SDS011;45330;51.634;5.562;2023-04-25T09:18:25;12.30;;;2.70;;
59512;SDS011;45330;51.634;5.562;2023-04-25T09:20:54;11.80;;;2.80;;
59512;SDS011;45330;51.634;5.562;2023-04-25T09:23:21;15.35;;;2.58;;
59512;SDS011;45330;51.634;5.562;2023-04-25T09:25:48;14.68;;;3.05;;
59512;SDS011;45330;51.634;5.562;2023-04-25T09:28:15;8.75;;;2.42;;
59512;SDS011;45330;51.634;5.562;2023-04-25T09:30:41;7.68;;;2.40;;
59512;SDS011;45330;51.634;5.562;2023-04-25T09:33:08;6.78;;;2.22;;
59512;SDS011;45330;51.634;5.562;2023-04-25T09:35:39;14.40;;;2.40;;
59512;SDS011;45330;51.634;5.562;2023-04-25T09:40:41;12.57;;;3.03;;
59512;SDS011;45330;51.634;5.562;2023-04-25T09:43:26;11.75;;;2.40;;
59512;SDS011;45330;51.634;5.562;2023-04-25T09:45:53;6.22;;;2.10;;
59512;SDS011;45330;51.634;5.562;2023-04-25T09:48:22;7.78;;;2.20;;
59512;SDS011;45330;51.634;5.562;2023-04-25T09:51:08;11.05;;;2.42;;
59512;SDS011;45330;51.634;5.562;2023-04-25T09:53:42;10.77;;;2.60;;
59512;SDS011;45330;51.634;5.562;2023-04-25T09:56:09;13.65;;;2.60;;
59512;SDS011;45330;51.634;5.562;2023-04-25T09:58:37;8.20;;;2.33;;
59512;SDS011;45330;51.634;5.562;2023-04-25T10:01:05;9.30;;;2.00;;
59512;SDS011;45330;51.634;5.562;2023-04-25T10:03:36;9.30;;;2.28;;
59512;SDS011;45330;51.634;5.562;2023-04-25T10:06:11;7.90;;;2.10;;
59512;SDS011;45330;51.634;5.562;2023-04-25T10:08:39;5.80;;;2.10;;
59512;SDS011;45330;51.634;5.562;2023-04-25T10:11:06;12.75;;;2.65;;
59512;SDS011;45330;51.634;5.562;2023-04-25T10:13:33;11.68;;;2.30;;
59512;SDS011;45330;51.634;5.562;2023-04-25T10:16:01;7.03;;;2.30;;
59512;SDS011;45330;51.634;5.562;2023-04-25T10:18:28;6.88;;;2.20;;
59512;SDS011;45330;51.634;5.562;2023-04-25T10:20:55;11.43;;;2.33;;
59512;SDS011;45330;51.634;5.562;2023-04-25T10:23:23;9.48;;;2.35;;
59512;SDS011;45330;51.634;5.562;2023-04-25T10:25:52;10.05;;;2.13;;
59512;SDS011;45330;51.634;5.562;2023-04-25T10:28:20;8.55;;;2.00;;
59512;SDS011;45330;51.634;5.562;2023-04-25T10:31:02;8.57;;;1.95;;
59512;SDS011;45330;51.634;5.562;2023-04-25T10:33:32;9.70;;;2.15;;
59512;SDS011;45330;51.634;5.562;2023-04-25T10:36:08;9.10;;;2.10;;
59512;SDS011;45330;51.634;5.562;2023-04-25T10:38:43;13.82;;;2.60;;
59512;SDS011;45330;51.634;5.562;2023-04-25T10:41:10;10.55;;;2.50;;
59512;SDS011;45330;51.634;5.562;2023-04-25T10:43:38;7.32;;;1.98;;
59512;SDS011;45330;51.634;5.562;2023-04-25T10:48:44;9.02;;;2.00;;
59512;SDS011;45330;51.634;5.562;2023-04-25T10:51:21;7.82;;;1.90;;
59512;SDS011;45330;51.634;5.562;2023-04-25T10:54:00;12.45;;;2.55;;
59512;SDS011;45330;51.634;5.562;2023-04-25T10:56:29;9.68;;;2.30;;
59512;SDS011;45330;51.634;5.562;2023-04-25T10:59:17;11.80;;;2.50;;
59512;SDS011;45330;51.634;5.562;2023-04-25T11:01:44;11.60;;;2.80;;
59512;SDS011;45330;51.634;5.562;2023-04-25T11:04:24;12.35;;;2.40;;
59512;SDS011;45330;51.634;5.562;2023-04-25T11:07:09;7.50;;;2.25;;
59512;SDS011;45330;51.634;5.562;2023-04-25T11:09:35;7.32;;;1.63;;
59512;SDS011;45330;51.634;5.562;2023-04-25T11:12:03;15.77;;;2.67;;
59512;SDS011;45330;51.634;5.562;2023-04-25T11:14:30;8.13;;;2.08;;
59512;SDS011;45330;51.634;5.562;2023-04-25T11:16:56;7.40;;;1.92;;
59512;SDS011;45330;51.634;5.562;2023-04-25T11:19:23;11.88;;;2.67;;
59512;SDS011;45330;51.634;5.562;2023-04-25T11:21:49;12.48;;;2.20;;
59512;SDS011;45330;51.634;5.562;2023-04-25T11:24:18;9.85;;;2.10;;
59512;SDS011;45330;51.634;5.562;2023-04-25T11:26:46;11.02;;;2.17;;
59512;SDS011;45330;51.634;5.562;2023-04-25T11:29:12;8.50;;;2.30;;
59512;SDS011;45330;51.634;5.562;2023-04-25T11:31:38;9.75;;;2.28;;
59512;SDS011;45330;51.634;5.562;2023-04-25T11:34:03;7.72;;;1.98;;
59512;SDS011;45330;51.634;5.562;2023-04-25T11:36:28;5.15;;;1.90;;
59512;SDS011;45330;51.634;5.562;2023-04-25T11:38:55;7.53;;;1.83;;
59512;SDS011;45330;51.634;5.562;2023-04-25T11:41:21;10.52;;;2.20;;
59512;SDS011;45330;51.634;5.562;2023-04-25T11:43:47;9.27;;;2.00;;
59512;SDS011;45330;51.634;5.562;2023-04-25T11:46:13;10.40;;;2.13;;
59512;SDS011;45330;51.634;5.562;2023-04-25T11:48:42;10.20;;;2.08;;
59512;SDS011;45330;51.634;5.562;2023-04-25T11:51:08;5.65;;;1.77;;
59512;SDS011;45330;51.634;5.562;2023-04-25T11:53:34;8.05;;;2.13;;
59512;SDS011;45330;51.634;5.562;2023-04-25T11:56:00;8.30;;;1.98;;
59512;SDS011;45330;51.634;5.562;2023-04-25T11:58:26;11.13;;;2.22;;
59512;SDS011;45330;51.634;5.562;2023-04-25T12:00:52;8.82;;;2.10;;
59512;SDS011;45330;51.634;5.562;2023-04-25T12:03:17;7.13;;;1.27;;
59512;SDS011;45330;51.634;5.562;2023-04-25T12:05:44;7.47;;;1.58;;
59512;SDS011;45330;51.634;5.562;2023-04-25T12:08:13;6.57;;;1.38;;
59512;SDS011;45330;51.634;5.562;2023-04-25T12:10:42;6.85;;;1.23;;
59512;SDS011;45330;51.634;5.562;2023-04-25T12:15:48;12.55;;;1.77;;
59512;SDS011;45330;51.634;5.562;2023-04-25T12:18:13;4.85;;;1.27;;
59512;SDS011;45330;51.634;5.562;2023-04-25T12:20:39;3.85;;;1.35;;
59512;SDS011;45330;51.634;5.562;2023-04-25T12:23:06;7.20;;;1.40;;
59512;SDS011;45330;51.634;5.562;2023-04-25T12:25:43;7.18;;;1.67;;
59512;SDS011;45330;51.634;5.562;2023-04-25T12:31:03;7.95;;;1.80;;
59512;SDS011;45330;51.634;5.562;2023-04-25T12:33:30;6.72;;;1.70;;
59512;SDS011;45330;51.634;5.562;2023-04-25T12:35:58;6.07;;;1.80;;
59512;SDS011;45330;51.634;5.562;2023-04-25T12:38:25;9.00;;;1.88;;
59512;SDS011;45330;51.634;5.562;2023-04-25T12:40:55;8.02;;;1.80;;
59512;SDS011;45330;51.634;5.562;2023-04-25T12:43:22;7.88;;;1.75;;
59512;SDS011;45330;51.634;5.562;2023-04-25T12:45:48;7.78;;;1.80;;
59512;SDS011;45330;51.634;5.562;2023-04-25T12:48:15;8.90;;;1.90;;
59512;SDS011;45330;51.634;5.562;2023-04-25T12:50:41;10.68;;;2.25;;
59512;SDS011;45330;51.634;5.562;2023-04-25T12:53:06;11.57;;;2.70;;
59512;SDS011;45330;51.634;5.562;2023-04-25T12:55:31;11.38;;;2.40;;
59512;SDS011;45330;51.634;5.562;2023-04-25T12:57:57;8.90;;;2.38;;
59512;SDS011;45330;51.634;5.562;2023-04-25T13:00:22;11.15;;;2.10;;
59512;SDS011;45330;51.634;5.562;2023-04-25T13:02:48;10.90;;;2.45;;
59512;SDS011;45330;51.634;5.562;2023-04-25T13:05:13;8.25;;;2.13;;
59512;SDS011;45330;51.634;5.562;2023-04-25T13:07:38;9.90;;;2.00;;
59512;SDS011;45330;51.634;5.562;2023-04-25T13:10:04;13.52;;;2.25;;
59512;SDS011;45330;51.634;5.562;2023-04-25T13:12:30;9.35;;;1.90;;
59512;SDS011;45330;51.634;5.562;2023-04-25T13:14:56;8.48;;;2.03;;
59512;SDS011;45330;51.634;5.562;2023-04-25T13:17:22;13.18;;;2.33;;
59512;SDS011;45330;51.634;5.562;2023-04-25T13:19:47;9.82;;;2.58;;
59512;SDS011;45330;51.634;5.562;2023-04-25T13:22:13;8.57;;;2.10;;
59512;SDS011;45330;51.634;5.562;2023-04-25T13:24:40;8.98;;;2.20;;
59512;SDS011;45330;51.634;5.562;2023-04-25T13:27:05;7.97;;;2.28;;
59512;SDS011;45330;51.634;5.562;2023-04-25T13:29:31;9.95;;;2.10;;
59512;SDS011;45330;51.634;5.562;2023-04-25T13:31:59;6.43;;;2.10;;
59512;SDS011;45330;51.634;5.562;2023-04-25T13:34:24;7.25;;;2.08;;
59512;SDS011;45330;51.634;5.562;2023-04-25T13:36:50;14.88;;;2.20;;
59512;SDS011;45330;51.634;5.562;2023-04-25T13:39:15;5.07;;;1.77;;
59512;SDS011;45330;51.634;5.562;2023-04-25T13:41:41;7.60;;;2.00;;
59512;SDS011;45330;51.634;5.562;2023-04-25T13:44:06;12.07;;;2.20;;
59512;SDS011;45330;51.634;5.562;2023-04-25T13:46:31;10.90;;;2.67;;
59512;SDS011;45330;51.634;5.562;2023-04-25T13:48:57;8.23;;;1.80;;
59512;SDS011;45330;51.634;5.562;2023-04-25T13:51:22;8.00;;;2.00;;
59512;SDS011;45330;51.634;5.562;2023-04-25T13:53:47;9.02;;;2.40;;
59512;SDS011;45330;51.634;5.562;2023-04-25T13:56:13;8.85;;;2.20;;
59512;SDS011;45330;51.634;5.562;2023-04-25T13:58:38;5.97;;;1.80;;
59512;SDS011;45330;51.634;5.562;2023-04-25T14:01:04;8.25;;;2.15;;
59512;SDS011;45330;51.634;5.562;2023-04-25T14:03:30;8.02;;;2.10;;
59512;SDS011;45330;51.634;5.562;2023-04-25T14:05:56;8.05;;;2.00;;
59512;SDS011;45330;51.634;5.562;2023-04-25T14:08:21;7.45;;;1.85;;
59512;SDS011;45330;51.634;5.562;2023-04-25T14:10:46;10.00;;;2.17;;
59512;SDS011;45330;51.634;5.562;2023-04-25T14:13:12;8.20;;;1.98;;
59512;SDS011;45330;51.634;5.562;2023-04-25T14:15:37;9.00;;;2.10;;
59512;SDS011;45330;51.634;5.562;2023-04-25T14:18:03;10.15;;;2.00;;
59512;SDS011;45330;51.634;5.562;2023-04-25T14:20:29;8.95;;;1.85;;
59512;SDS011;45330;51.634;5.562;2023-04-25T14:22:55;9.77;;;2.20;;
59512;SDS011;45330;51.634;5.562;2023-04-25T14:25:22;6.25;;;2.17;;
59512;SDS011;45330;51.634;5.562;2023-04-25T14:27:48;8.32;;;2.30;;
59512;SDS011;45330;51.634;5.562;2023-04-25T14:30:15;9.18;;;2.10;;
59512;SDS011;45330;51.634;5.562;2023-04-25T14:32:42;10.23;;;2.45;;
59512;SDS011;45330;51.634;5.562;2023-04-25T14:35:07;11.48;;;2.30;;
59512;SDS011;45330;51.634;5.562;2023-04-25T14:37:34;10.52;;;2.20;;
59512;SDS011;45330;51.634;5.562;2023-04-25T14:39:59;9.15;;;2.38;;
59512;SDS011;45330;51.634;5.562;2023-04-25T14:42:24;12.40;;;2.40;;
59512;SDS011;45330;51.634;5.562;2023-04-25T14:44:50;11.20;;;2.50;;